sensor_id;sensor_type;location;lat;lon;timestamp;P1;durP1;ratioP1;P2;durP2;ratioP2
29206;SDS011;16247;50.840;4.382;2023-02-28T00:01:33;11.55;;;6.60;;
29206;SDS011;16247;50.840;4.382;2023-02-28T00:07:21;10.50;;;6.40;;
29206;SDS011;16247;50.840;4.382;2023-02-28T00:13:08;7.85;;;5.43;;
29206;SDS011;16247;50.840;4.382;2023-02-28T00:15:35;10.27;;;6.43;;
29206;SDS011;16247;50.840;4.382;2023-02-28T00:18:02;10.07;;;5.90;;
29206;SDS011;16247;50.840;4.382;2023-02-28T00:20:29;9.75;;;5.80;;
29206;SDS011;16247;50.840;4.382;2023-02-28T00:22:55;10.52;;;6.13;;
29206;SDS011;16247;50.840;4.382;2023-02-28T00:25:22;10.32;;;6.13;;
29206;SDS011;16247;50.840;4.382;2023-02-28T00:27:52;9.63;;;5.38;;
29206;SDS011;16247;50.840;4.382;2023-02-28T00:30:18;10.77;;;6.78;;
29206;SDS011;16247;50.840;4.382;2023-02-28T00:32:49;13.77;;;6.70;;
29206;SDS011;16247;50.840;4.382;2023-02-28T00:35:25;7.13;;;6.07;;
29206;SDS011;16247;50.840;4.382;2023-02-28T00:37:51;12.13;;;6.78;;
29206;SDS011;16247;50.840;4.382;2023-02-28T00:40:25;8.32;;;6.82;;
29206;SDS011;16247;50.840;4.382;2023-02-28T00:42:51;12.38;;;7.63;;
29206;SDS011;16247;50.840;4.382;2023-02-28T00:45:23;11.27;;;7.95;;
29206;SDS011;16247;50.840;4.382;2023-02-28T00:47:49;15.38;;;10.35;;
29206;SDS011;16247;50.840;4.382;2023-02-28T00:50:18;17.33;;;10.85;;
29206;SDS011;16247;50.840;4.382;2023-02-28T00:52:45;18.50;;;10.20;;
29206;SDS011;16247;50.840;4.382;2023-02-28T00:55:10;18.23;;;10.70;;
29206;SDS011;16247;50.840;4.382;2023-02-28T00:57:36;17.00;;;8.32;;
29206;SDS011;16247;50.840;4.382;2023-02-28T01:00:02;13.93;;;8.88;;
29206;SDS011;16247;50.840;4.382;2023-02-28T01:02:29;13.63;;;7.78;;
29206;SDS011;16247;50.840;4.382;2023-02-28T01:04:54;12.15;;;7.80;;
29206;SDS011;16247;50.840;4.382;2023-02-28T01:07:22;12.25;;;7.00;;
29206;SDS011;16247;50.840;4.382;2023-02-28T01:09:48;13.27;;;7.60;;
29206;SDS011;16247;50.840;4.382;2023-02-28T01:12:14;12.35;;;7.80;;
29206;SDS011;16247;50.840;4.382;2023-02-28T01:14:39;18.52;;;6.65;;
29206;SDS011;16247;50.840;4.382;2023-02-28T01:17:08;14.18;;;7.32;;
29206;SDS011;16247;50.840;4.382;2023-02-28T01:19:34;15.88;;;7.75;;
29206;SDS011;16247;50.840;4.382;2023-02-28T01:22:04;18.25;;;9.95;;
29206;SDS011;16247;50.840;4.382;2023-02-28T01:24:32;13.18;;;7.32;;
29206;SDS011;16247;50.840;4.382;2023-02-28T01:26:58;9.85;;;6.45;;
29206;SDS011;16247;50.840;4.382;2023-02-28T01:29:24;13.02;;;7.25;;
29206;SDS011;16247;50.840;4.382;2023-02-28T01:31:50;8.43;;;6.38;;
29206;SDS011;16247;50.840;4.382;2023-02-28T01:34:16;9.05;;;6.63;;
29206;SDS011;16247;50.840;4.382;2023-02-28T01:36:50;10.48;;;6.20;;
29206;SDS011;16247;50.840;4.382;2023-02-28T01:39:16;10.50;;;6.93;;
29206;SDS011;16247;50.840;4.382;2023-02-28T01:41:42;10.00;;;7.35;;
29206;SDS011;16247;50.840;4.382;2023-02-28T01:47:12;11.27;;;7.75;;
29206;SDS011;16247;50.840;4.382;2023-02-28T01:49:38;13.70;;;7.82;;
29206;SDS011;16247;50.840;4.382;2023-02-28T01:52:04;13.52;;;7.40;;
29206;SDS011;16247;50.840;4.382;2023-02-28T01:54:30;10.65;;;7.13;;
29206;SDS011;16247;50.840;4.382;2023-02-28T01:57:07;11.38;;;8.10;;
29206;SDS011;16247;50.840;4.382;2023-02-28T01:59:39;13.27;;;7.57;;
29206;SDS011;16247;50.840;4.382;2023-02-28T02:02:11;13.63;;;6.82;;
29206;SDS011;16247;50.840;4.382;2023-02-28T02:04:58;14.68;;;7.78;;
29206;SDS011;16247;50.840;4.382;2023-02-28T02:10:27;13.45;;;7.75;;
29206;SDS011;16247;50.840;4.382;2023-02-28T02:21:25;14.57;;;7.85;;
29206;SDS011;16247;50.840;4.382;2023-02-28T02:27:22;11.97;;;7.60;;
29206;SDS011;16247;50.840;4.382;2023-02-28T02:32:47;12.68;;;8.00;;
29206;SDS011;16247;50.840;4.382;2023-02-28T02:38:54;14.60;;;8.23;;
29206;SDS011;16247;50.840;4.382;2023-02-28T02:41:52;11.75;;;8.05;;
29206;SDS011;16247;50.840;4.382;2023-02-28T02:44:22;11.80;;;8.30;;
29206;SDS011;16247;50.840;4.382;2023-02-28T02:47:01;15.15;;;7.90;;
29206;SDS011;16247;50.840;4.382;2023-02-28T02:49:36;14.45;;;8.50;;
29206;SDS011;16247;50.840;4.382;2023-02-28T02:52:04;13.48;;;8.32;;
29206;SDS011;16247;50.840;4.382;2023-02-28T02:54:38;16.08;;;9.65;;
29206;SDS011;16247;50.840;4.382;2023-02-28T02:57:08;12.40;;;8.98;;
29206;SDS011;16247;50.840;4.382;2023-02-28T02:59:40;14.63;;;8.90;;
29206;SDS011;16247;50.840;4.382;2023-02-28T03:02:08;14.82;;;9.05;;
29206;SDS011;16247;50.840;4.382;2023-02-28T03:04:45;16.77;;;9.50;;
29206;SDS011;16247;50.840;4.382;2023-02-28T03:07:15;14.23;;;9.35;;
29206;SDS011;16247;50.840;4.382;2023-02-28T03:09:49;13.95;;;9.02;;
29206;SDS011;16247;50.840;4.382;2023-02-28T03:12:19;14.68;;;9.80;;
29206;SDS011;16247;50.840;4.382;2023-02-28T03:20:45;16.23;;;9.55;;
29206;SDS011;16247;50.840;4.382;2023-02-28T03:23:20;13.27;;;9.90;;
29206;SDS011;16247;50.840;4.382;2023-02-28T03:26:12;14.10;;;9.05;;
29206;SDS011;16247;50.840;4.382;2023-02-28T03:29:05;18.02;;;10.00;;
29206;SDS011;16247;50.840;4.382;2023-02-28T03:31:49;18.27;;;10.02;;
29206;SDS011;16247;50.840;4.382;2023-02-28T03:34:22;15.90;;;9.23;;
29206;SDS011;16247;50.840;4.382;2023-02-28T03:37:11;19.80;;;10.65;;
29206;SDS011;16247;50.840;4.382;2023-02-28T03:39:47;23.15;;;10.90;;
29206;SDS011;16247;50.840;4.382;2023-02-28T03:45:41;15.18;;;10.30;;
29206;SDS011;16247;50.840;4.382;2023-02-28T03:48:15;16.27;;;9.70;;
29206;SDS011;16247;50.840;4.382;2023-02-28T03:50:45;17.25;;;10.48;;
29206;SDS011;16247;50.840;4.382;2023-02-28T03:53:22;14.63;;;10.43;;
29206;SDS011;16247;50.840;4.382;2023-02-28T03:56:18;15.55;;;9.82;;
29206;SDS011;16247;50.840;4.382;2023-02-28T03:59:00;18.52;;;10.27;;
29206;SDS011;16247;50.840;4.382;2023-02-28T04:01:41;18.92;;;11.38;;
29206;SDS011;16247;50.840;4.382;2023-02-28T04:04:12;19.20;;;11.13;;
29206;SDS011;16247;50.840;4.382;2023-02-28T04:06:39;22.13;;;10.95;;
29206;SDS011;16247;50.840;4.382;2023-02-28T04:09:05;17.90;;;10.35;;
29206;SDS011;16247;50.840;4.382;2023-02-28T04:14:00;20.63;;;11.13;;
29206;SDS011;16247;50.840;4.382;2023-02-28T04:16:27;19.15;;;11.70;;
29206;SDS011;16247;50.840;4.382;2023-02-28T04:18:53;19.38;;;10.52;;
29206;SDS011;16247;50.840;4.382;2023-02-28T04:21:19;16.63;;;10.68;;
29206;SDS011;16247;50.840;4.382;2023-02-28T04:23:49;14.35;;;10.27;;
29206;SDS011;16247;50.840;4.382;2023-02-28T04:26:17;17.73;;;10.70;;
29206;SDS011;16247;50.840;4.382;2023-02-28T04:28:42;15.63;;;8.38;;
29206;SDS011;16247;50.840;4.382;2023-02-28T04:31:08;16.88;;;10.77;;
29206;SDS011;16247;50.840;4.382;2023-02-28T04:33:34;15.48;;;9.63;;
29206;SDS011;16247;50.840;4.382;2023-02-28T04:36:06;14.18;;;10.10;;
29206;SDS011;16247;50.840;4.382;2023-02-28T04:38:34;16.70;;;10.93;;
29206;SDS011;16247;50.840;4.382;2023-02-28T04:41:01;17.70;;;10.13;;
29206;SDS011;16247;50.840;4.382;2023-02-28T04:43:27;17.23;;;10.40;;
29206;SDS011;16247;50.840;4.382;2023-02-28T04:45:54;15.48;;;10.48;;
29206;SDS011;16247;50.840;4.382;2023-02-28T04:48:22;16.98;;;10.48;;
29206;SDS011;16247;50.840;4.382;2023-02-28T04:50:53;17.13;;;10.98;;
29206;SDS011;16247;50.840;4.382;2023-02-28T04:53:19;17.92;;;11.77;;
29206;SDS011;16247;50.840;4.382;2023-02-28T04:55:46;17.90;;;10.70;;
29206;SDS011;16247;50.840;4.382;2023-02-28T04:58:13;20.80;;;12.45;;
29206;SDS011;16247;50.840;4.382;2023-02-28T05:00:40;16.70;;;11.27;;
29206;SDS011;16247;50.840;4.382;2023-02-28T05:03:10;15.45;;;10.45;;
29206;SDS011;16247;50.840;4.382;2023-02-28T05:08:59;16.83;;;10.85;;
29206;SDS011;16247;50.840;4.382;2023-02-28T05:14:00;15.70;;;11.32;;
29206;SDS011;16247;50.840;4.382;2023-02-28T05:20:03;17.23;;;10.98;;
29206;SDS011;16247;50.840;4.382;2023-02-28T05:22:31;18.10;;;10.82;;
29206;SDS011;16247;50.840;4.382;2023-02-28T05:24:57;20.20;;;11.25;;
29206;SDS011;16247;50.840;4.382;2023-02-28T05:27:26;14.98;;;10.60;;
29206;SDS011;16247;50.840;4.382;2023-02-28T05:29:53;24.38;;;13.07;;
29206;SDS011;16247;50.840;4.382;2023-02-28T05:32:19;18.65;;;11.20;;
29206;SDS011;16247;50.840;4.382;2023-02-28T05:34:45;14.35;;;10.68;;
29206;SDS011;16247;50.840;4.382;2023-02-28T05:37:14;17.75;;;10.30;;
29206;SDS011;16247;50.840;4.382;2023-02-28T05:39:41;18.58;;;11.48;;
29206;SDS011;16247;50.840;4.382;2023-02-28T05:42:10;16.88;;;10.18;;
29206;SDS011;16247;50.840;4.382;2023-02-28T05:44:38;14.75;;;10.00;;
29206;SDS011;16247;50.840;4.382;2023-02-28T05:47:03;17.05;;;9.70;;
29206;SDS011;16247;50.840;4.382;2023-02-28T05:49:29;16.40;;;10.15;;
29206;SDS011;16247;50.840;4.382;2023-02-28T05:51:54;16.65;;;10.93;;
29206;SDS011;16247;50.840;4.382;2023-02-28T05:54:23;17.75;;;10.93;;
29206;SDS011;16247;50.840;4.382;2023-02-28T05:59:18;16.88;;;10.50;;
29206;SDS011;16247;50.840;4.382;2023-02-28T06:01:45;17.08;;;11.00;;
29206;SDS011;16247;50.840;4.382;2023-02-28T06:04:18;17.17;;;10.60;;
29206;SDS011;16247;50.840;4.382;2023-02-28T06:06:49;14.48;;;10.25;;
29206;SDS011;16247;50.840;4.382;2023-02-28T06:09:16;18.75;;;11.00;;
29206;SDS011;16247;50.840;4.382;2023-02-28T06:11:42;18.02;;;9.80;;
29206;SDS011;16247;50.840;4.382;2023-02-28T06:14:12;15.48;;;9.68;;
29206;SDS011;16247;50.840;4.382;2023-02-28T06:16:55;17.13;;;10.00;;
29206;SDS011;16247;50.840;4.382;2023-02-28T06:19:20;18.20;;;10.13;;
29206;SDS011;16247;50.840;4.382;2023-02-28T06:21:52;18.95;;;9.88;;
29206;SDS011;16247;50.840;4.382;2023-02-28T06:24:26;18.80;;;10.73;;
29206;SDS011;16247;50.840;4.382;2023-02-28T06:26:56;19.05;;;9.60;;
29206;SDS011;16247;50.840;4.382;2023-02-28T06:29:23;17.13;;;9.82;;
29206;SDS011;16247;50.840;4.382;2023-02-28T06:31:49;21.85;;;10.35;;
29206;SDS011;16247;50.840;4.382;2023-02-28T06:34:15;16.55;;;10.18;;
29206;SDS011;16247;50.840;4.382;2023-02-28T06:36:41;15.95;;;10.25;;
29206;SDS011;16247;50.840;4.382;2023-02-28T06:39:07;16.60;;;10.48;;
29206;SDS011;16247;50.840;4.382;2023-02-28T06:41:35;18.88;;;9.25;;
29206;SDS011;16247;50.840;4.382;2023-02-28T06:44:03;15.07;;;10.13;;
29206;SDS011;16247;50.840;4.382;2023-02-28T06:46:30;18.30;;;10.57;;
29206;SDS011;16247;50.840;4.382;2023-02-28T06:48:58;19.15;;;9.98;;
29206;SDS011;16247;50.840;4.382;2023-02-28T06:51:24;16.20;;;10.82;;
29206;SDS011;16247;50.840;4.382;2023-02-28T06:53:50;19.20;;;9.95;;
29206;SDS011;16247;50.840;4.382;2023-02-28T06:56:18;17.45;;;10.25;;
29206;SDS011;16247;50.840;4.382;2023-02-28T06:58:46;15.38;;;10.07;;
29206;SDS011;16247;50.840;4.382;2023-02-28T07:01:13;16.75;;;10.40;;
29206;SDS011;16247;50.840;4.382;2023-02-28T07:03:39;14.57;;;9.95;;
29206;SDS011;16247;50.840;4.382;2023-02-28T07:06:06;22.27;;;10.05;;
29206;SDS011;16247;50.840;4.382;2023-02-28T07:08:35;20.95;;;11.13;;
29206;SDS011;16247;50.840;4.382;2023-02-28T07:11:02;17.33;;;10.15;;
29206;SDS011;16247;50.840;4.382;2023-02-28T07:13:28;14.50;;;9.25;;
29206;SDS011;16247;50.840;4.382;2023-02-28T07:16:01;16.38;;;9.98;;
29206;SDS011;16247;50.840;4.382;2023-02-28T07:18:28;18.90;;;10.65;;
29206;SDS011;16247;50.840;4.382;2023-02-28T07:20:54;17.30;;;9.85;;
29206;SDS011;16247;50.840;4.382;2023-02-28T07:23:20;17.73;;;9.95;;
29206;SDS011;16247;50.840;4.382;2023-02-28T07:25:46;15.82;;;10.65;;
29206;SDS011;16247;50.840;4.382;2023-02-28T07:28:13;15.57;;;10.88;;
29206;SDS011;16247;50.840;4.382;2023-02-28T07:30:40;17.40;;;9.63;;
29206;SDS011;16247;50.840;4.382;2023-02-28T07:33:08;19.38;;;10.40;;
29206;SDS011;16247;50.840;4.382;2023-02-28T07:35:40;15.38;;;9.55;;
29206;SDS011;16247;50.840;4.382;2023-02-28T07:38:08;14.18;;;9.10;;
29206;SDS011;16247;50.840;4.382;2023-02-28T07:40:34;13.93;;;9.05;;
29206;SDS011;16247;50.840;4.382;2023-02-28T07:43:01;20.40;;;10.27;;
29206;SDS011;16247;50.840;4.382;2023-02-28T07:45:27;17.98;;;9.90;;
29206;SDS011;16247;50.840;4.382;2023-02-28T07:47:58;18.73;;;10.55;;
29206;SDS011;16247;50.840;4.382;2023-02-28T07:50:26;14.52;;;8.20;;
29206;SDS011;16247;50.840;4.382;2023-02-28T07:52:55;12.77;;;8.05;;
29206;SDS011;16247;50.840;4.382;2023-02-28T07:55:22;11.10;;;7.75;;
29206;SDS011;16247;50.840;4.382;2023-02-28T07:57:48;14.32;;;8.02;;
29206;SDS011;16247;50.840;4.382;2023-02-28T08:00:14;12.52;;;7.93;;
29206;SDS011;16247;50.840;4.382;2023-02-28T08:02:39;12.15;;;7.78;;
29206;SDS011;16247;50.840;4.382;2023-02-28T08:05:06;13.93;;;6.93;;
29206;SDS011;16247;50.840;4.382;2023-02-28T08:07:33;12.20;;;6.93;;
29206;SDS011;16247;50.840;4.382;2023-02-28T08:12:30;11.52;;;7.25;;
29206;SDS011;16247;50.840;4.382;2023-02-28T08:14:57;13.48;;;7.60;;
29206;SDS011;16247;50.840;4.382;2023-02-28T08:17:24;13.68;;;7.35;;
29206;SDS011;16247;50.840;4.382;2023-02-28T08:19:50;11.85;;;6.55;;
29206;SDS011;16247;50.840;4.382;2023-02-28T08:22:16;7.57;;;4.90;;
29206;SDS011;16247;50.840;4.382;2023-02-28T08:24:42;14.23;;;6.03;;
29206;SDS011;16247;50.840;4.382;2023-02-28T08:27:08;9.88;;;5.78;;
29206;SDS011;16247;50.840;4.382;2023-02-28T08:29:37;6.10;;;4.55;;
29206;SDS011;16247;50.840;4.382;2023-02-28T08:32:03;10.70;;;6.07;;
29206;SDS011;16247;50.840;4.382;2023-02-28T08:34:30;12.75;;;6.70;;
29206;SDS011;16247;50.840;4.382;2023-02-28T08:36:57;8.73;;;5.93;;
29206;SDS011;16247;50.840;4.382;2023-02-28T08:39:23;10.02;;;5.88;;
29206;SDS011;16247;50.840;4.382;2023-02-28T08:41:49;10.10;;;5.47;;
29206;SDS011;16247;50.840;4.382;2023-02-28T08:44:14;9.20;;;5.32;;
29206;SDS011;16247;50.840;4.382;2023-02-28T08:46:41;14.18;;;5.78;;
29206;SDS011;16247;50.840;4.382;2023-02-28T08:49:09;10.30;;;5.45;;
29206;SDS011;16247;50.840;4.382;2023-02-28T08:51:35;9.60;;;4.93;;
29206;SDS011;16247;50.840;4.382;2023-02-28T08:54:00;15.32;;;6.05;;
29206;SDS011;16247;50.840;4.382;2023-02-28T08:56:27;13.68;;;5.78;;
29206;SDS011;16247;50.840;4.382;2023-02-28T08:58:54;10.20;;;5.05;;
29206;SDS011;16247;50.840;4.382;2023-02-28T09:01:25;7.45;;;5.30;;
29206;SDS011;16247;50.840;4.382;2023-02-28T09:03:55;10.43;;;4.90;;
29206;SDS011;16247;50.840;4.382;2023-02-28T09:06:24;10.40;;;5.30;;
29206;SDS011;16247;50.840;4.382;2023-02-28T09:08:51;9.25;;;5.25;;
29206;SDS011;16247;50.840;4.382;2023-02-28T09:11:18;7.85;;;4.95;;
29206;SDS011;16247;50.840;4.382;2023-02-28T09:13:46;8.57;;;5.50;;
29206;SDS011;16247;50.840;4.382;2023-02-28T09:16:14;7.82;;;4.65;;
29206;SDS011;16247;50.840;4.382;2023-02-28T09:18:41;9.73;;;5.50;;
29206;SDS011;16247;50.840;4.382;2023-02-28T09:21:08;10.85;;;4.88;;
29206;SDS011;16247;50.840;4.382;2023-02-28T09:23:38;5.40;;;4.25;;
29206;SDS011;16247;50.840;4.382;2023-02-28T09:26:07;6.80;;;4.78;;
29206;SDS011;16247;50.840;4.382;2023-02-28T09:28:32;9.93;;;4.55;;
29206;SDS011;16247;50.840;4.382;2023-02-28T09:30:58;5.82;;;4.93;;
29206;SDS011;16247;50.840;4.382;2023-02-28T09:33:25;6.22;;;4.03;;
29206;SDS011;16247;50.840;4.382;2023-02-28T09:35:57;9.52;;;4.22;;
29206;SDS011;16247;50.840;4.382;2023-02-28T09:38:25;8.70;;;4.85;;
29206;SDS011;16247;50.840;4.382;2023-02-28T09:40:54;10.38;;;3.90;;
29206;SDS011;16247;50.840;4.382;2023-02-28T09:43:27;12.20;;;4.25;;
29206;SDS011;16247;50.840;4.382;2023-02-28T09:48:53;6.63;;;3.75;;
29206;SDS011;16247;50.840;4.382;2023-02-28T09:53:55;7.53;;;3.85;;
29206;SDS011;16247;50.840;4.382;2023-02-28T09:56:27;5.25;;;3.45;;
29206;SDS011;16247;50.840;4.382;2023-02-28T10:04:57;5.70;;;3.53;;
29206;SDS011;16247;50.840;4.382;2023-02-28T10:18:41;4.93;;;3.50;;
29206;SDS011;16247;50.840;4.382;2023-02-28T10:21:46;7.65;;;3.33;;
29206;SDS011;16247;50.840;4.382;2023-02-28T10:24:51;5.53;;;3.17;;
29206;SDS011;16247;50.840;4.382;2023-02-28T10:27:23;6.32;;;3.10;;
29206;SDS011;16247;50.840;4.382;2023-02-28T10:29:50;5.78;;;4.20;;
29206;SDS011;16247;50.840;4.382;2023-02-28T10:32:22;4.60;;;2.97;;
29206;SDS011;16247;50.840;4.382;2023-02-28T10:37:45;4.38;;;3.13;;
29206;SDS011;16247;50.840;4.382;2023-02-28T10:43:05;7.57;;;2.80;;
29206;SDS011;16247;50.840;4.382;2023-02-28T10:45:38;4.78;;;2.83;;
29206;SDS011;16247;50.840;4.382;2023-02-28T10:50:42;4.55;;;2.85;;
29206;SDS011;16247;50.840;4.382;2023-02-28T10:56:34;6.57;;;2.80;;
29206;SDS011;16247;50.840;4.382;2023-02-28T11:04:43;4.85;;;2.50;;
29206;SDS011;16247;50.840;4.382;2023-02-28T11:09:54;3.42;;;2.10;;
29206;SDS011;16247;50.840;4.382;2023-02-28T11:15:33;5.35;;;3.25;;
29206;SDS011;16247;50.840;4.382;2023-02-28T11:17:56;8.38;;;2.90;;
29206;SDS011;16247;50.840;4.382;2023-02-28T11:20:25;5.68;;;3.15;;
29206;SDS011;16247;50.840;4.382;2023-02-28T11:22:55;9.07;;;3.70;;
29206;SDS011;16247;50.840;4.382;2023-02-28T11:25:28;3.40;;;2.70;;
29206;SDS011;16247;50.840;4.382;2023-02-28T11:28:06;3.10;;;2.00;;
29206;SDS011;16247;50.840;4.382;2023-02-28T11:30:59;5.45;;;2.60;;
29206;SDS011;16247;50.840;4.382;2023-02-28T11:33:40;3.72;;;2.63;;
29206;SDS011;16247;50.840;4.382;2023-02-28T11:36:15;6.50;;;3.30;;
29206;SDS011;16247;50.840;4.382;2023-02-28T11:38:47;4.70;;;2.67;;
29206;SDS011;16247;50.840;4.382;2023-02-28T11:46:51;5.15;;;2.58;;
29206;SDS011;16247;50.840;4.382;2023-02-28T11:54:51;4.43;;;3.38;;
29206;SDS011;16247;50.840;4.382;2023-02-28T12:06:45;4.63;;;3.38;;
29206;SDS011;16247;50.840;4.382;2023-02-28T12:09:38;7.10;;;3.10;;
29206;SDS011;16247;50.840;4.382;2023-02-28T12:15:04;6.22;;;3.50;;
29206;SDS011;16247;50.840;4.382;2023-02-28T12:20:14;7.55;;;2.85;;
29206;SDS011;16247;50.840;4.382;2023-02-28T12:22:49;4.50;;;2.60;;
29206;SDS011;16247;50.840;4.382;2023-02-28T12:28:09;8.43;;;3.42;;
29206;SDS011;16247;50.840;4.382;2023-02-28T12:30:42;7.88;;;4.00;;
29206;SDS011;16247;50.840;4.382;2023-02-28T12:33:28;6.40;;;3.45;;
29206;SDS011;16247;50.840;4.382;2023-02-28T12:36:03;4.78;;;2.70;;
29206;SDS011;16247;50.840;4.382;2023-02-28T12:38:41;3.33;;;2.60;;
29206;SDS011;16247;50.840;4.382;2023-02-28T12:41:12;8.02;;;3.50;;
29206;SDS011;16247;50.840;4.382;2023-02-28T12:43:46;4.47;;;2.80;;
29206;SDS011;16247;50.840;4.382;2023-02-28T12:46:17;5.47;;;3.05;;
29206;SDS011;16247;50.840;4.382;2023-02-28T12:48:49;4.22;;;2.92;;
29206;SDS011;16247;50.840;4.382;2023-02-28T12:51:25;3.85;;;2.80;;
29206;SDS011;16247;50.840;4.382;2023-02-28T13:02:33;3.95;;;3.13;;
29206;SDS011;16247;50.840;4.382;2023-02-28T13:10:47;3.53;;;2.90;;
29206;SDS011;16247;50.840;4.382;2023-02-28T13:13:21;3.40;;;2.40;;
29206;SDS011;16247;50.840;4.382;2023-02-28T13:18:30;3.13;;;2.55;;
29206;SDS011;16247;50.840;4.382;2023-02-28T13:21:07;7.35;;;4.43;;
29206;SDS011;16247;50.840;4.382;2023-02-28T13:26:15;5.78;;;3.38;;
29206;SDS011;16247;50.840;4.382;2023-02-28T13:31:25;4.05;;;3.15;;
29206;SDS011;16247;50.840;4.382;2023-02-28T13:36:29;5.07;;;2.60;;
29206;SDS011;16247;50.840;4.382;2023-02-28T13:38:58;3.75;;;2.70;;
29206;SDS011;16247;50.840;4.382;2023-02-28T13:46:26;4.95;;;2.85;;
29206;SDS011;16247;50.840;4.382;2023-02-28T13:48:54;21.20;;;8.70;;
29206;SDS011;16247;50.840;4.382;2023-02-28T13:51:28;3.53;;;2.95;;
29206;SDS011;16247;50.840;4.382;2023-02-28T13:54:24;6.65;;;2.60;;
29206;SDS011;16247;50.840;4.382;2023-02-28T14:02:29;5.25;;;3.15;;
29206;SDS011;16247;50.840;4.382;2023-02-28T14:05:15;5.60;;;2.95;;
29206;SDS011;16247;50.840;4.382;2023-02-28T14:07:55;6.57;;;2.60;;
29206;SDS011;16247;50.840;4.382;2023-02-28T14:10:27;3.28;;;2.78;;
29206;SDS011;16247;50.840;4.382;2023-02-28T14:12:58;3.40;;;2.67;;
29206;SDS011;16247;50.840;4.382;2023-02-28T14:15:46;4.00;;;3.00;;
29206;SDS011;16247;50.840;4.382;2023-02-28T14:18:31;3.60;;;2.75;;
29206;SDS011;16247;50.840;4.382;2023-02-28T14:21:01;3.58;;;3.20;;
29206;SDS011;16247;50.840;4.382;2023-02-28T14:32:30;7.63;;;3.30;;
29206;SDS011;16247;50.840;4.382;2023-02-28T14:37:54;3.72;;;3.33;;
29206;SDS011;16247;50.840;4.382;2023-02-28T14:40:30;4.13;;;2.80;;
29206;SDS011;16247;50.840;4.382;2023-02-28T14:43:01;4.32;;;2.97;;
29206;SDS011;16247;50.840;4.382;2023-02-28T14:45:32;5.75;;;3.33;;
29206;SDS011;16247;50.840;4.382;2023-02-28T14:48:02;3.63;;;3.05;;
29206;SDS011;16247;50.840;4.382;2023-02-28T14:50:37;7.32;;;3.00;;
29206;SDS011;16247;50.840;4.382;2023-02-28T14:55:43;5.35;;;3.22;;
29206;SDS011;16247;50.840;4.382;2023-02-28T15:00:59;8.00;;;3.60;;
29206;SDS011;16247;50.840;4.382;2023-02-28T15:03:31;9.05;;;4.00;;
29206;SDS011;16247;50.840;4.382;2023-02-28T15:06:02;5.95;;;3.28;;
29206;SDS011;16247;50.840;4.382;2023-02-28T15:08:41;7.97;;;4.40;;
29206;SDS011;16247;50.840;4.382;2023-02-28T15:11:18;6.50;;;4.15;;
29206;SDS011;16247;50.840;4.382;2023-02-28T15:13:51;10.00;;;4.68;;
29206;SDS011;16247;50.840;4.382;2023-02-28T15:18:59;4.97;;;3.55;;
29206;SDS011;16247;50.840;4.382;2023-02-28T15:21:38;4.95;;;3.13;;
29206;SDS011;16247;50.840;4.382;2023-02-28T15:27:16;4.50;;;3.30;;
29206;SDS011;16247;50.840;4.382;2023-02-28T15:29:56;4.95;;;4.20;;
29206;SDS011;16247;50.840;4.382;2023-02-28T15:32:34;4.45;;;3.33;;
29206;SDS011;16247;50.840;4.382;2023-02-28T15:40:43;5.80;;;4.05;;
29206;SDS011;16247;50.840;4.382;2023-02-28T15:43:23;4.90;;;4.10;;
29206;SDS011;16247;50.840;4.382;2023-02-28T15:46:09;5.03;;;3.88;;
29206;SDS011;16247;50.840;4.382;2023-02-28T15:48:54;9.10;;;3.88;;
29206;SDS011;16247;50.840;4.382;2023-02-28T15:51:41;5.55;;;3.67;;
29206;SDS011;16247;50.840;4.382;2023-02-28T15:54:10;4.15;;;3.20;;
29206;SDS011;16247;50.840;4.382;2023-02-28T15:56:45;6.53;;;3.95;;
29206;SDS011;16247;50.840;4.382;2023-02-28T15:59:21;6.50;;;3.60;;
29206;SDS011;16247;50.840;4.382;2023-02-28T16:07:35;5.60;;;3.42;;
29206;SDS011;16247;50.840;4.382;2023-02-28T16:10:04;12.98;;;4.07;;
29206;SDS011;16247;50.840;4.382;2023-02-28T16:12:35;12.15;;;3.97;;
29206;SDS011;16247;50.840;4.382;2023-02-28T16:15:06;7.97;;;3.90;;
29206;SDS011;16247;50.840;4.382;2023-02-28T16:17:43;5.20;;;3.53;;
29206;SDS011;16247;50.840;4.382;2023-02-28T16:20:12;3.55;;;3.13;;
29206;SDS011;16247;50.840;4.382;2023-02-28T16:22:48;8.13;;;4.13;;
29206;SDS011;16247;50.840;4.382;2023-02-28T16:28:37;5.30;;;4.18;;
29206;SDS011;16247;50.840;4.382;2023-02-28T16:33:45;6.72;;;3.95;;
29206;SDS011;16247;50.840;4.382;2023-02-28T16:36:16;6.40;;;3.63;;
29206;SDS011;16247;50.840;4.382;2023-02-28T16:38:43;8.25;;;3.50;;
29206;SDS011;16247;50.840;4.382;2023-02-28T16:41:11;6.55;;;3.65;;
29206;SDS011;16247;50.840;4.382;2023-02-28T16:43:45;5.47;;;2.80;;
29206;SDS011;16247;50.840;4.382;2023-02-28T16:46:13;8.63;;;4.38;;
29206;SDS011;16247;50.840;4.382;2023-02-28T16:48:39;5.05;;;3.10;;
29206;SDS011;16247;50.840;4.382;2023-02-28T16:51:06;8.40;;;3.75;;
29206;SDS011;16247;50.840;4.382;2023-02-28T16:53:36;5.68;;;4.00;;
29206;SDS011;16247;50.840;4.382;2023-02-28T16:56:02;7.55;;;3.53;;
29206;SDS011;16247;50.840;4.382;2023-02-28T16:58:29;6.38;;;3.90;;
29206;SDS011;16247;50.840;4.382;2023-02-28T17:00:55;6.43;;;3.92;;
29206;SDS011;16247;50.840;4.382;2023-02-28T17:03:22;7.53;;;3.80;;
29206;SDS011;16247;50.840;4.382;2023-02-28T17:05:50;6.80;;;3.53;;
29206;SDS011;16247;50.840;4.382;2023-02-28T17:08:16;4.97;;;3.38;;
29206;SDS011;16247;50.840;4.382;2023-02-28T17:10:44;5.25;;;3.63;;
29206;SDS011;16247;50.840;4.382;2023-02-28T17:13:10;6.10;;;3.33;;
29206;SDS011;16247;50.840;4.382;2023-02-28T17:15:36;7.28;;;3.97;;
29206;SDS011;16247;50.840;4.382;2023-02-28T17:18:03;8.23;;;3.67;;
29206;SDS011;16247;50.840;4.382;2023-02-28T17:20:30;6.60;;;3.63;;
29206;SDS011;16247;50.840;4.382;2023-02-28T17:22:56;5.35;;;3.53;;
29206;SDS011;16247;50.840;4.382;2023-02-28T17:27:51;6.70;;;3.90;;
29206;SDS011;16247;50.840;4.382;2023-02-28T17:30:22;5.45;;;3.60;;
29206;SDS011;16247;50.840;4.382;2023-02-28T17:32:49;10.75;;;4.05;;
29206;SDS011;16247;50.840;4.382;2023-02-28T17:35:15;8.77;;;4.07;;
29206;SDS011;16247;50.840;4.382;2023-02-28T17:37:42;10.90;;;4.68;;
29206;SDS011;16247;50.840;4.382;2023-02-28T17:40:25;6.90;;;4.20;;
29206;SDS011;16247;50.840;4.382;2023-02-28T17:42:55;8.15;;;3.85;;
29206;SDS011;16247;50.840;4.382;2023-02-28T17:45:22;6.70;;;3.60;;
29206;SDS011;16247;50.840;4.382;2023-02-28T17:50:20;10.30;;;4.07;;
29206;SDS011;16247;50.840;4.382;2023-02-28T17:52:49;4.50;;;3.67;;
29206;SDS011;16247;50.840;4.382;2023-02-28T17:55:15;8.65;;;4.00;;
29206;SDS011;16247;50.840;4.382;2023-02-28T18:03:36;5.88;;;3.42;;
29206;SDS011;16247;50.840;4.382;2023-02-28T18:06:05;7.93;;;4.20;;
29206;SDS011;16247;50.840;4.382;2023-02-28T18:08:32;7.15;;;4.32;;
29206;SDS011;16247;50.840;4.382;2023-02-28T18:11:00;6.63;;;3.85;;
29206;SDS011;16247;50.840;4.382;2023-02-28T18:13:29;7.65;;;3.80;;
29206;SDS011;16247;50.840;4.382;2023-02-28T18:18:26;8.52;;;4.05;;
29206;SDS011;16247;50.840;4.382;2023-02-28T18:20:58;6.10;;;4.10;;
29206;SDS011;16247;50.840;4.382;2023-02-28T18:23:25;6.82;;;4.03;;
29206;SDS011;16247;50.840;4.382;2023-02-28T18:26:04;8.57;;;4.40;;
29206;SDS011;16247;50.840;4.382;2023-02-28T18:28:35;6.72;;;4.05;;
29206;SDS011;16247;50.840;4.382;2023-02-28T18:31:10;10.13;;;4.93;;
29206;SDS011;16247;50.840;4.382;2023-02-28T18:36:06;7.75;;;5.05;;
29206;SDS011;16247;50.840;4.382;2023-02-28T18:38:33;10.00;;;5.20;;
29206;SDS011;16247;50.840;4.382;2023-02-28T18:43:55;9.02;;;5.15;;